createdAt,value
2022-12-04T00:01:28.478Z,76.13
2022-12-04T00:03:59.678Z,75.30
2022-12-04T00:06:28.425Z,74.71
2022-12-04T00:08:56.151Z,74.64
2022-12-04T00:11:28.340Z,74.63
2022-12-04T00:14:04.551Z,75.25
2022-12-04T00:16:33.724Z,75.26
2022-12-04T00:19:00.720Z,75.84
2022-12-04T00:21:27.689Z,75.17
2022-12-04T00:23:55.006Z,74.38
2022-12-04T00:26:25.887Z,75.05
2022-12-04T00:28:53.953Z,74.78
2022-12-04T00:31:27.512Z,74.32
2022-12-04T00:33:57.344Z,74.41
2022-12-04T00:36:28.779Z,74.56
2022-12-04T00:38:55.959Z,75.73
2022-12-04T00:41:26.279Z,76.18
2022-12-04T00:43:53.795Z,75.98
2022-12-04T00:46:21.350Z,76.33
2022-12-04T00:48:48.555Z,76.70
2022-12-04T00:51:25.266Z,76.31
2022-12-04T00:53:56.375Z,75.36
2022-12-04T00:56:30.619Z,76.08
2022-12-04T00:59:00.040Z,75.08
2022-12-04T01:01:28.473Z,74.75
2022-12-04T01:03:58.677Z,77.21
2022-12-04T01:06:32.777Z,76.77
2022-12-04T01:09:01.882Z,76.59
2022-12-04T01:11:33.027Z,76.10
2022-12-04T01:14:01.064Z,76.29
2022-12-04T01:16:32.387Z,76.73
2022-12-04T01:19:00.469Z,76.46
2022-12-04T01:21:30.051Z,77.19
2022-12-04T01:23:59.894Z,77.58
2022-12-04T01:26:31.842Z,76.38
2022-12-04T01:28:59.175Z,76.22
2022-12-04T01:31:26.534Z,77.01
2022-12-04T01:33:54.186Z,77.29
2022-12-04T01:36:29.019Z,76.67
2022-12-04T01:39:03.044Z,76.70
2022-12-04T01:41:32.270Z,77.01
2022-12-04T01:44:15.694Z,77.39
2022-12-04T01:46:46.502Z,75.94
2022-12-04T01:49:22.812Z,76.29
2022-12-04T01:51:56.601Z,75.83
2022-12-04T01:54:36.030Z,76.71
2022-12-04T01:57:26.118Z,76.53
2022-12-04T02:00:00.585Z,76.34
2022-12-04T02:02:37.314Z,76.82
2022-12-04T02:05:08.205Z,75.70
2022-12-04T02:07:36.254Z,76.44
2022-12-04T02:10:08.701Z,76.60
2022-12-04T02:12:50.061Z,77.20
2022-12-04T02:15:39.915Z,77.78
2022-12-04T02:18:39.044Z,77.01
2022-12-04T02:21:22.254Z,77.09
2022-12-04T02:24:10.269Z,77.08
2022-12-04T02:26:41.749Z,77.19
2022-12-04T02:29:46.708Z,78.82
2022-12-04T02:32:42.530Z,77.25
2022-12-04T02:35:46.720Z,77.72
2022-12-04T02:38:54.171Z,78.90
2022-12-04T02:41:31.354Z,78.13
2022-12-04T02:44:09.579Z,77.84
2022-12-04T02:46:50.199Z,78.25
2022-12-04T02:49:25.211Z,78.47
2022-12-04T02:51:55.497Z,77.96
2022-12-04T02:54:53.165Z,78.22
2022-12-04T02:57:30.308Z,78.28
2022-12-04T02:59:59.557Z,78.37
2022-12-04T03:02:53.354Z,79.75
2022-12-04T03:05:29.525Z,79.52
2022-12-04T03:08:02.729Z,79.23
2022-12-04T03:10:52.450Z,79.03
2022-12-04T03:13:29.180Z,78.92
2022-12-04T03:16:16.171Z,79.42
2022-12-04T03:18:49.860Z,79.28
2022-12-04T03:21:21.286Z,78.80
2022-12-04T03:23:57.732Z,79.75
2022-12-04T03:26:38.956Z,78.69
2022-12-04T03:29:23.745Z,78.98
2022-12-04T03:32:13.767Z,80.06
2022-12-04T03:35:03.346Z,80.19
2022-12-04T03:38:28.346Z,79.24
2022-12-04T03:41:06.801Z,79.73
2022-12-04T03:43:48.620Z,78.62
2022-12-04T03:46:22.309Z,79.15
2022-12-04T03:48:58.604Z,80.08
2022-12-04T03:51:39.058Z,79.02
2022-12-04T03:54:52.460Z,79.69
2022-12-04T03:57:29.487Z,78.82
2022-12-04T04:00:11.953Z,78.80
2022-12-04T04:02:49.279Z,79.16
2022-12-04T04:05:17.870Z,78.21
2022-12-04T04:07:56.809Z,78.26
2022-12-04T04:10:26.655Z,78.10
2022-12-04T04:13:20.468Z,79.15
2022-12-04T04:16:12.287Z,78.70
2022-12-04T04:19:00.591Z,78.94
2022-12-04T04:21:52.403Z,80.08
2022-12-04T04:24:39.177Z,79.28
2022-12-04T04:27:06.250Z,79.55
2022-12-04T04:29:33.449Z,78.98
2022-12-04T04:32:10.504Z,79.45
2022-12-04T04:35:00.877Z,79.50
2022-12-04T04:38:29.858Z,78.98
2022-12-04T04:41:22.959Z,78.56
2022-12-04T04:44:07.083Z,78.72
2022-12-04T04:46:39.201Z,79.35
2022-12-04T04:49:11.122Z,79.88
2022-12-04T04:51:38.615Z,79.34
2022-12-04T04:54:10.680Z,79.16
2022-12-04T04:56:43.099Z,78.63
2022-12-04T04:59:11.496Z,78.44
2022-12-04T05:01:43.117Z,78.81
2022-12-04T05:04:13.458Z,78.72
2022-12-04T05:06:40.585Z,78.70
2022-12-04T05:09:07.535Z,79.18
2022-12-04T05:11:34.549Z,80.02
2022-12-04T05:14:01.626Z,79.87
2022-12-04T05:16:28.961Z,78.67
2022-12-04T05:19:14.277Z,78.61
2022-12-04T05:21:43.437Z,78.56
2022-12-04T05:24:10.400Z,78.05
2022-12-04T05:26:37.513Z,78.47
2022-12-04T05:29:06.892Z,78.89
2022-12-04T05:31:36.341Z,78.42
2022-12-04T05:34:07.970Z,78.48
2022-12-04T05:36:37.226Z,78.07
2022-12-04T05:39:06.615Z,77.66
2022-12-04T05:41:33.640Z,78.36
2022-12-04T05:44:03.066Z,78.55
2022-12-04T05:46:30.139Z,78.87
2022-12-04T05:48:58.493Z,78.15
2022-12-04T05:51:27.783Z,78.27
2022-12-04T05:53:56.985Z,78.08
2022-12-04T05:56:26.210Z,77.51
2022-12-04T05:58:55.207Z,77.61
2022-12-04T06:01:24.915Z,78.10
2022-12-04T06:03:52.339Z,77.97
2022-12-04T06:06:23.242Z,77.99
2022-12-04T06:08:56.475Z,77.89
2022-12-04T06:11:27.438Z,77.91
2022-12-04T06:13:54.897Z,78.10
2022-12-04T06:16:28.596Z,77.58
2022-12-04T06:19:02.251Z,78.29
2022-12-04T06:21:34.969Z,77.16
2022-12-04T06:24:02.841Z,77.29
2022-12-04T06:26:34.902Z,77.68
2022-12-04T06:29:04.198Z,78.36
2022-12-04T06:31:36.089Z,78.23
2022-12-04T06:34:03.098Z,78.96
2022-12-04T06:36:30.553Z,78.52
2022-12-04T06:39:01.167Z,78.69
2022-12-04T06:41:29.539Z,78.73
2022-12-04T06:43:56.926Z,78.09
2022-12-04T06:46:30.938Z,78.61
2022-12-04T06:49:02.469Z,78.71
2022-12-04T06:51:36.630Z,77.62
2022-12-04T06:54:06.551Z,78.23
2022-12-04T06:56:34.664Z,77.20
2022-12-04T06:59:04.991Z,77.81
2022-12-04T07:01:34.857Z,77.76
2022-12-04T07:04:04.767Z,77.66
2022-12-04T07:06:36.739Z,77.29
2022-12-04T07:09:07.060Z,77.66
2022-12-04T07:11:34.401Z,77.44
2022-12-04T07:14:04.152Z,77.91
2022-12-04T07:16:39.995Z,77.81
2022-12-04T07:19:12.797Z,78.03
2022-12-04T07:21:40.499Z,78.07
2022-12-04T07:24:07.768Z,78.12
2022-12-04T07:26:34.871Z,77.39
2022-12-04T07:29:01.862Z,78.16
2022-12-04T07:31:30.329Z,77.31
2022-12-04T07:34:02.527Z,78.12
2022-12-04T07:36:34.142Z,77.24
2022-12-04T07:39:03.682Z,77.55
2022-12-04T07:41:35.365Z,76.64
2022-12-04T07:44:04.726Z,76.75
2022-12-04T07:46:34.393Z,77.32
2022-12-04T07:49:01.831Z,76.92
2022-12-04T07:51:30.184Z,76.95
2022-12-04T07:54:02.880Z,77.49
2022-12-04T07:56:34.551Z,76.94
2022-12-04T07:59:04.714Z,78.36
2022-12-04T08:01:32.210Z,77.69
2022-12-04T08:04:04.403Z,77.54
2022-12-04T08:06:35.266Z,78.46
2022-12-04T08:09:07.928Z,78.50
2022-12-04T08:11:36.996Z,78.96
2022-12-04T08:14:14.832Z,78.09
2022-12-04T08:16:41.856Z,78.27
2022-12-04T08:19:08.889Z,77.96
2022-12-04T08:21:35.878Z,78.21
2022-12-04T08:24:05.949Z,77.40
2022-12-04T08:26:36.018Z,77.69
2022-12-04T08:29:04.835Z,78.59
2022-12-04T08:31:36.473Z,78.55
2022-12-04T08:34:08.071Z,77.84
2022-12-04T08:36:37.848Z,77.46
2022-12-04T08:39:05.165Z,78.67
2022-12-04T08:41:34.693Z,77.60
2022-12-04T08:44:01.635Z,77.55
2022-12-04T08:46:31.345Z,77.83
2022-12-04T08:48:58.821Z,77.28
2022-12-04T08:51:29.951Z,77.81
2022-12-04T08:54:00.168Z,77.30
2022-12-04T08:56:29.952Z,78.22
2022-12-04T08:58:58.803Z,78.72
2022-12-04T09:01:29.741Z,77.74
2022-12-04T09:03:57.209Z,78.12
2022-12-04T09:06:29.359Z,77.80
2022-12-04T09:08:59.766Z,77.93
2022-12-04T09:11:30.655Z,77.66
2022-12-04T09:14:02.463Z,77.60
2022-12-04T09:16:29.989Z,77.85
2022-12-04T09:18:57.541Z,79.30
2022-12-04T09:21:27.977Z,78.75
2022-12-04T09:23:54.972Z,78.33
2022-12-04T09:26:28.987Z,78.57
2022-12-04T09:29:00.761Z,77.81
2022-12-04T09:31:28.301Z,77.82
2022-12-04T09:33:55.431Z,78.46
2022-12-04T09:36:22.517Z,78.46
2022-12-04T09:38:55.265Z,79.29
2022-12-04T09:42:13.434Z,80.21
2022-12-04T09:44:48.653Z,81.22
2022-12-04T09:47:31.717Z,80.45
2022-12-04T09:50:15.216Z,80.41
2022-12-04T09:53:04.159Z,81.00
2022-12-04T09:55:58.624Z,81.02
2022-12-04T09:59:02.983Z,80.63
2022-12-04T10:02:10.611Z,80.65
2022-12-04T10:04:37.648Z,80.49
2022-12-04T10:07:24.640Z,81.58
2022-12-04T10:10:06.877Z,81.70
2022-12-04T10:13:01.481Z,80.81
2022-12-04T10:15:42.358Z,80.72
2022-12-04T10:18:52.468Z,81.02
2022-12-04T10:21:45.538Z,80.58
2022-12-04T10:24:31.589Z,80.83
2022-12-04T10:27:02.504Z,80.40
2022-12-04T10:29:39.163Z,81.40
2022-12-04T10:32:32.032Z,81.03
2022-12-04T10:35:22.950Z,82.04
2022-12-04T10:38:03.992Z,82.53
2022-12-04T10:40:49.669Z,82.06
2022-12-04T10:43:43.729Z,82.26
2022-12-04T10:46:25.099Z,81.21
2022-12-04T10:48:58.518Z,80.46
2022-12-04T10:51:38.382Z,79.68
2022-12-04T10:55:01.321Z,80.18
2022-12-04T10:57:54.677Z,80.32
2022-12-04T11:00:36.227Z,80.06
2022-12-04T11:03:12.852Z,79.37
2022-12-04T11:05:56.914Z,79.73
2022-12-04T11:08:50.100Z,79.77
2022-12-04T11:11:34.604Z,79.48
2022-12-04T11:14:15.043Z,79.22
2022-12-04T11:16:48.382Z,79.48
2022-12-04T11:19:26.076Z,79.85
2022-12-04T11:22:04.238Z,79.91
2022-12-04T11:24:37.982Z,79.58
2022-12-04T11:27:07.288Z,79.56
2022-12-04T11:29:42.003Z,80.58
2022-12-04T11:32:34.761Z,79.29
2022-12-04T11:35:24.222Z,79.54
2022-12-04T11:38:17.585Z,79.79
2022-12-04T11:41:06.587Z,79.04
2022-12-04T11:43:48.895Z,79.31
2022-12-04T11:46:23.733Z,79.03
2022-12-04T11:48:55.658Z,79.03
2022-12-04T11:52:09.098Z,78.71
2022-12-04T11:55:12.389Z,78.90
2022-12-04T11:58:09.406Z,79.37
2022-12-04T12:00:50.972Z,80.02
2022-12-04T12:03:37.606Z,79.24
2022-12-04T12:06:26.544Z,78.87
2022-12-04T12:09:08.517Z,78.64
2022-12-04T12:11:56.631Z,79.41
2022-12-04T12:14:41.277Z,78.75
2022-12-04T12:17:27.251Z,78.28
2022-12-04T12:20:15.554Z,79.54
2022-12-04T12:22:53.826Z,79.13
2022-12-04T12:26:12.090Z,79.31
2022-12-04T12:29:09.007Z,78.92
2022-12-04T12:32:03.620Z,78.86
2022-12-04T12:34:44.932Z,78.83
2022-12-04T12:37:41.873Z,79.29
2022-12-04T12:40:25.526Z,79.45
2022-12-04T12:42:58.693Z,79.01
2022-12-04T12:46:06.895Z,79.51
2022-12-04T12:49:20.967Z,79.24
2022-12-04T12:52:06.524Z,79.23
2022-12-04T12:54:39.425Z,78.95
2022-12-04T12:57:20.817Z,80.14
2022-12-04T12:59:56.537Z,80.40
2022-12-04T13:02:30.343Z,80.25
2022-12-04T13:05:11.295Z,80.69
2022-12-04T13:07:56.495Z,80.62
2022-12-04T13:10:31.884Z,80.93
2022-12-04T13:13:06.213Z,80.57
2022-12-04T13:15:54.231Z,80.61
2022-12-04T13:18:49.245Z,81.29
2022-12-04T13:21:42.540Z,80.98
2022-12-04T13:24:43.555Z,79.83
2022-12-04T13:27:41.060Z,79.99
2022-12-04T13:30:23.751Z,80.28
2022-12-04T13:33:11.538Z,79.78
2022-12-04T13:35:59.336Z,80.29
2022-12-04T13:38:31.991Z,81.58
2022-12-04T13:41:04.618Z,80.89
2022-12-04T13:43:45.781Z,80.32
2022-12-04T13:46:34.056Z,79.82
2022-12-04T13:49:18.172Z,80.28
2022-12-04T13:51:50.653Z,80.54
2022-12-04T13:54:17.525Z,80.75
2022-12-04T13:56:52.052Z,81.14
2022-12-04T13:59:28.287Z,81.91
2022-12-04T14:02:06.608Z,81.39
2022-12-04T14:04:59.540Z,81.00
2022-12-04T14:07:37.551Z,81.00
2022-12-04T14:10:16.978Z,81.26
2022-12-04T14:13:20.861Z,81.09
2022-12-04T14:15:50.474Z,80.59
2022-12-04T14:18:29.572Z,81.43
2022-12-04T14:21:05.488Z,80.01
2022-12-04T14:23:42.149Z,80.53
2022-12-04T14:26:48.899Z,80.61
2022-12-04T14:29:30.699Z,82.39
2022-12-04T14:32:16.876Z,82.50
2022-12-04T14:34:48.252Z,81.18
2022-12-04T14:37:25.669Z,81.62
2022-12-04T14:39:55.736Z,82.11
2022-12-04T14:42:26.841Z,82.34
2022-12-04T14:45:03.527Z,82.56
2022-12-04T14:48:22.196Z,82.62
2022-12-04T14:51:17.100Z,81.79
2022-12-04T14:54:23.662Z,81.50
2022-12-04T14:57:33.753Z,81.80
2022-12-04T15:00:01.666Z,81.30
2022-12-04T15:02:40.213Z,81.14
2022-12-04T15:05:30.629Z,80.43
2022-12-04T15:08:01.831Z,80.85
2022-12-04T15:10:51.317Z,80.36
2022-12-04T15:13:33.741Z,81.22
2022-12-04T15:16:23.499Z,81.74
2022-12-04T15:19:01.074Z,82.12
2022-12-04T15:21:40.395Z,82.65
2022-12-04T15:24:23.378Z,83.20
2022-12-04T15:26:54.311Z,83.84
2022-12-04T15:29:26.481Z,82.11
2022-12-04T15:31:58.810Z,82.43
2022-12-04T15:34:50.132Z,82.37
2022-12-04T15:37:27.703Z,82.95
2022-12-04T15:39:56.009Z,83.31
2022-12-04T15:42:23.150Z,84.09
2022-12-04T15:45:09.871Z,83.82
2022-12-04T15:47:42.517Z,83.76
2022-12-04T15:50:15.521Z,83.43
2022-12-04T15:52:58.944Z,82.46
2022-12-04T15:55:30.532Z,83.70
2022-12-04T15:58:39.434Z,83.56
2022-12-04T16:01:09.118Z,84.52
2022-12-04T16:03:42.436Z,83.84
2022-12-04T16:06:22.933Z,83.59
2022-12-04T16:09:09.817Z,83.94
2022-12-04T16:11:41.896Z,83.03
2022-12-04T16:14:08.773Z,83.23
2022-12-04T16:16:49.729Z,83.97
2022-12-04T16:19:31.619Z,84.16
2022-12-04T16:21:59.485Z,84.44
2022-12-04T16:24:29.138Z,84.09
2022-12-04T16:26:58.684Z,84.01
2022-12-04T16:29:30.478Z,83.99
2022-12-04T16:32:02.948Z,83.91
2022-12-04T16:34:30.974Z,83.80
2022-12-04T16:37:01.025Z,84.21
2022-12-04T16:39:27.961Z,85.10
2022-12-04T16:41:54.848Z,84.16
2022-12-04T16:44:24.771Z,84.45
2022-12-04T16:46:53.800Z,83.52
2022-12-04T16:49:20.692Z,83.63
2022-12-04T16:51:51.372Z,83.23
2022-12-04T16:54:21.019Z,84.73
2022-12-04T16:56:47.930Z,84.10
2022-12-04T16:59:15.095Z,84.38
2022-12-04T17:01:48.391Z,84.35
2022-12-04T17:04:16.964Z,83.88
2022-12-04T17:06:48.845Z,83.59
2022-12-04T17:09:16.533Z,83.74
2022-12-04T17:11:44.309Z,83.01
2022-12-04T17:14:11.557Z,82.46
2022-12-04T17:16:45.057Z,83.07
2022-12-04T17:19:14.043Z,84.07
2022-12-04T17:21:45.504Z,83.90
2022-12-04T17:24:13.374Z,84.29
2022-12-04T17:26:41.079Z,83.38
2022-12-04T17:29:08.214Z,83.11
2022-12-04T17:31:35.741Z,82.82
2022-12-04T17:34:07.558Z,83.44
2022-12-04T17:36:35.332Z,83.19
2022-12-04T17:39:11.770Z,82.47
2022-12-04T17:41:41.153Z,81.74
2022-12-04T17:44:08.160Z,82.58
2022-12-04T17:46:37.188Z,82.62
2022-12-04T17:49:07.327Z,83.28
2022-12-04T17:51:35.904Z,83.54
2022-12-04T17:54:06.118Z,83.56
2022-12-04T17:56:34.558Z,84.13
2022-12-04T17:59:05.514Z,84.88
2022-12-04T18:01:33.032Z,84.76
2022-12-04T18:04:04.464Z,83.85
2022-12-04T18:06:38.437Z,84.56
2022-12-04T18:09:10.348Z,84.27
2022-12-04T18:11:40.891Z,84.94
2022-12-04T18:14:15.044Z,84.23
2022-12-04T18:16:52.997Z,83.96
2022-12-04T18:19:25.590Z,84.52
2022-12-04T18:21:54.045Z,84.71
2022-12-04T18:24:22.814Z,85.45
2022-12-04T18:26:51.540Z,84.62
2022-12-04T18:29:25.301Z,83.97
2022-12-04T18:31:52.878Z,85.32
2022-12-04T18:34:22.713Z,84.72
2022-12-04T18:36:50.827Z,83.46
2022-12-04T18:39:21.859Z,83.77
2022-12-04T18:41:49.500Z,83.21
2022-12-04T18:44:17.812Z,84.02
2022-12-04T18:46:45.448Z,85.07
2022-12-04T18:49:14.981Z,85.27
2022-12-04T18:51:50.021Z,85.24
2022-12-04T18:54:25.299Z,85.01
2022-12-04T18:56:54.729Z,85.64
2022-12-04T18:59:24.970Z,85.25
2022-12-04T19:01:53.828Z,84.84
2022-12-04T19:04:24.075Z,85.18
2022-12-04T19:06:55.795Z,85.38
2022-12-04T19:09:54.389Z,85.09
2022-12-04T19:12:18.451Z,85.65
2022-12-04T19:14:47.589Z,85.57
2022-12-04T19:17:16.914Z,86.84
2022-12-04T19:19:46.284Z,87.01
2022-12-04T19:22:13.483Z,86.78
2022-12-04T19:24:43.689Z,87.24
2022-12-04T19:27:11.999Z,86.80
2022-12-04T19:29:41.570Z,88.34
2022-12-04T19:32:10.380Z,88.32
2022-12-04T19:34:38.041Z,87.48
2022-12-04T19:37:07.542Z,86.15
2022-12-04T19:39:34.479Z,86.75
2022-12-04T19:42:01.449Z,86.99
2022-12-04T19:47:15.463Z,87.62
2022-12-04T19:49:44.461Z,87.89
2022-12-04T19:52:18.660Z,88.74
2022-12-04T19:54:45.666Z,88.53
2022-12-04T19:57:15.376Z,87.59
2022-12-04T19:59:46.189Z,86.79
2022-12-04T20:02:14.577Z,87.79
2022-12-04T20:04:41.772Z,86.74
2022-12-04T20:07:09.193Z,87.36
2022-12-04T20:09:38.761Z,88.61
2022-12-04T20:12:06.048Z,88.24
2022-12-04T20:14:33.081Z,88.22
2022-12-04T20:17:04.069Z,88.24
2022-12-04T20:19:31.297Z,87.45
2022-12-04T20:21:59.548Z,87.42
2022-12-04T20:24:29.802Z,86.72
2022-12-04T20:26:56.882Z,86.44
2022-12-04T20:29:26.106Z,85.90
2022-12-04T20:31:53.138Z,86.77
2022-12-04T20:34:20.242Z,87.07
2022-12-04T20:36:49.053Z,87.06
2022-12-04T20:39:22.008Z,86.99
2022-12-04T20:41:49.153Z,86.61
2022-12-04T20:44:19.873Z,88.46
2022-12-04T20:46:47.516Z,87.17
2022-12-04T20:49:22.289Z,86.41
2022-12-04T20:51:54.753Z,86.56
2022-12-04T20:54:23.388Z,85.39
2022-12-04T20:56:53.445Z,86.30
2022-12-04T20:59:24.806Z,86.37
2022-12-04T21:01:52.820Z,85.46
2022-12-04T21:04:20.856Z,84.65
2022-12-04T21:06:48.002Z,84.93
2022-12-04T21:09:25.131Z,85.04
2022-12-04T21:11:54.998Z,85.50
2022-12-04T21:14:44.594Z,84.65
2022-12-04T21:17:21.523Z,84.97
2022-12-04T21:19:52.702Z,83.59
2022-12-04T21:22:22.903Z,83.43
2022-12-04T21:24:49.857Z,83.97
2022-12-04T21:27:20.965Z,83.98
2022-12-04T21:29:49.030Z,83.51
2022-12-04T21:32:16.459Z,84.30
2022-12-04T21:34:43.271Z,83.73
2022-12-04T21:37:10.238Z,83.78
2022-12-04T21:39:37.246Z,84.12
2022-12-04T21:42:23.069Z,84.53
2022-12-04T21:44:50.031Z,84.81
2022-12-04T21:47:21.836Z,83.08
2022-12-04T21:49:49.011Z,83.41
2022-12-04T21:52:17.390Z,83.96
2022-12-04T21:54:44.926Z,83.72
2022-12-04T21:57:11.943Z,83.50
2022-12-04T21:59:38.991Z,83.52
2022-12-04T22:02:08.367Z,83.73
2022-12-04T22:04:38.188Z,83.92
2022-12-04T22:07:08.268Z,83.73
2022-12-04T22:09:38.942Z,83.27
2022-12-04T22:12:26.408Z,82.46
2022-12-04T22:14:55.001Z,83.79
2022-12-04T22:17:24.186Z,83.19
2022-12-04T22:19:51.023Z,83.55
2022-12-04T22:22:20.772Z,83.53
2022-12-04T22:24:50.572Z,83.33
2022-12-04T22:27:22.306Z,82.41
2022-12-04T22:29:51.072Z,82.61
2022-12-04T22:32:19.642Z,82.64
2022-12-04T22:34:49.114Z,83.80
2022-12-04T22:37:16.195Z,83.85
2022-12-04T22:39:43.114Z,83.15
2022-12-04T22:42:14.635Z,83.30
2022-12-04T22:44:44.393Z,83.66
2022-12-04T22:47:15.967Z,84.21
2022-12-04T22:49:42.955Z,85.17
2022-12-04T22:52:12.403Z,84.32
2022-12-04T22:54:39.363Z,83.65
2022-12-04T22:57:07.801Z,84.46
2022-12-04T22:59:34.725Z,83.98
2022-12-04T23:02:01.757Z,83.71
2022-12-04T23:04:30.080Z,82.85
2022-12-04T23:06:58.034Z,83.79
2022-12-04T23:09:28.368Z,84.24
2022-12-04T23:11:56.377Z,83.60
2022-12-04T23:14:27.202Z,83.44
2022-12-04T23:16:54.877Z,85.39
2022-12-04T23:19:31.371Z,85.33
2022-12-04T23:21:58.997Z,85.08
2022-12-04T23:24:28.757Z,86.32
2022-12-04T23:26:58.375Z,85.78
2022-12-04T23:32:14.676Z,85.51
2022-12-04T23:34:43.825Z,85.24
2022-12-04T23:37:13.339Z,85.66
2022-12-04T23:39:40.282Z,85.74
2022-12-04T23:42:07.374Z,86.98
2022-12-04T23:44:38.118Z,86.66
2022-12-04T23:47:05.331Z,86.72
2022-12-04T23:49:37.910Z,86.21
2022-12-04T23:52:06.903Z,86.03
2022-12-04T23:54:35.964Z,86.66
2022-12-04T23:57:03.064Z,86.47
2022-12-04T23:59:30.122Z,86.09
